createdAt,value
2022-10-13T00:03:29.262Z,6.27
2022-10-13T00:13:35.558Z,6.03
2022-10-13T00:18:40.895Z,6.07
2022-10-13T00:28:52.013Z,6.13
2022-10-13T00:33:59.740Z,6.00
2022-10-13T00:39:03.308Z,6.00
2022-10-13T00:44:27.751Z,6.10
2022-10-13T00:49:32.982Z,6.00
2022-10-13T00:59:41.264Z,5.47
2022-10-13T01:04:48.658Z,6.20
2022-10-13T01:09:52.469Z,5.80
2022-10-13T01:15:04.156Z,6.00
2022-10-13T01:20:39.930Z,5.50
2022-10-13T01:26:04.531Z,5.97
2022-10-13T01:31:20.627Z,5.47
2022-10-13T01:36:31.500Z,6.03
2022-10-13T01:41:39.675Z,6.40
2022-10-13T01:46:47.377Z,6.03
2022-10-13T01:51:52.897Z,5.85
2022-10-13T02:02:10.894Z,5.93
2022-10-13T02:07:21.148Z,5.82
2022-10-13T02:12:31.514Z,6.07
2022-10-13T02:17:36.924Z,6.25
2022-10-13T02:22:45.855Z,5.82
2022-10-13T02:27:49.437Z,6.80
2022-10-13T02:32:54.631Z,5.93
2022-10-13T02:37:58.148Z,6.32
2022-10-13T02:43:01.704Z,6.13
2022-10-13T02:48:07.287Z,5.88
2022-10-13T02:58:13.655Z,6.63
2022-10-13T03:03:19.404Z,6.18
2022-10-13T03:08:22.968Z,6.82
2022-10-13T03:13:26.793Z,6.10
2022-10-13T03:18:31.962Z,6.05
2022-10-13T03:23:35.696Z,6.32
2022-10-13T03:28:39.303Z,6.53
2022-10-13T03:33:44.946Z,6.35
2022-10-13T03:38:48.480Z,6.20
2022-10-13T03:43:52.251Z,6.47
2022-10-13T03:48:57.513Z,6.40
2022-10-13T03:54:01.246Z,5.88
2022-10-13T03:59:04.827Z,6.05
2022-10-13T04:04:12.506Z,6.22
2022-10-13T04:09:21.672Z,6.18
2022-10-13T04:14:25.887Z,5.63
2022-10-13T04:19:32.095Z,5.90
2022-10-13T04:24:35.680Z,6.30
2022-10-13T04:29:39.238Z,5.55
2022-10-13T04:34:44.416Z,5.65
2022-10-13T04:39:47.964Z,6.40
2022-10-13T04:44:51.499Z,6.47
2022-10-13T04:49:56.787Z,6.40
2022-10-13T04:55:00.322Z,6.13
2022-10-13T05:00:05.200Z,6.13
2022-10-13T05:05:11.439Z,5.50
2022-10-13T05:10:15.398Z,6.50
2022-10-13T05:15:19.387Z,6.85
2022-10-13T05:20:24.548Z,6.28
2022-10-13T05:25:31.589Z,6.50
2022-10-13T05:30:37.380Z,5.90
2022-10-13T05:35:42.581Z,6.10
2022-10-13T05:40:46.111Z,6.23
2022-10-13T05:45:49.868Z,6.40
2022-10-13T05:50:56.475Z,6.18
2022-10-13T05:56:03.803Z,5.90
2022-10-13T06:01:12.521Z,5.93
2022-10-13T06:06:18.013Z,6.45
2022-10-13T06:11:21.555Z,6.68
2022-10-13T06:16:25.078Z,6.13
2022-10-13T06:21:30.277Z,5.95
2022-10-13T06:26:34.014Z,6.63
2022-10-13T06:31:37.540Z,6.50
2022-10-13T06:36:42.704Z,6.25
2022-10-13T06:41:46.946Z,6.13
2022-10-13T06:46:50.511Z,6.30
2022-10-13T06:51:56.678Z,6.18
2022-10-13T06:57:00.247Z,6.28
2022-10-13T07:02:03.803Z,5.93
2022-10-13T07:07:08.984Z,6.20
2022-10-13T07:12:14.864Z,5.90
2022-10-13T07:17:18.657Z,5.90
2022-10-13T07:22:24.081Z,6.10
2022-10-13T07:27:28.841Z,6.03
2022-10-13T07:32:33.413Z,5.90
2022-10-13T07:37:39.086Z,5.93
2022-10-13T07:42:42.708Z,5.55
2022-10-13T07:47:46.239Z,6.05
2022-10-13T07:52:51.391Z,5.88
2022-10-13T07:57:54.925Z,5.50
2022-10-13T08:02:58.459Z,5.93
2022-10-13T08:08:03.649Z,5.75
2022-10-13T08:13:07.877Z,5.63
2022-10-13T08:18:12.492Z,5.70
2022-10-13T08:23:18.641Z,5.32
2022-10-13T08:33:27.146Z,5.65
2022-10-13T08:38:32.298Z,5.38
2022-10-13T08:43:41.706Z,6.05
2022-10-13T08:48:52.752Z,5.57
2022-10-13T08:53:58.117Z,5.43
2022-10-13T08:59:01.791Z,6.40
2022-10-13T09:04:20.259Z,5.78
2022-10-13T09:09:25.415Z,5.72
2022-10-13T09:14:30.579Z,5.45
2022-10-13T09:19:35.528Z,6.15
2022-10-13T09:24:40.956Z,5.75
2022-10-13T09:29:45.799Z,5.70
2022-10-13T09:34:52.112Z,5.00
2022-10-13T09:40:14.217Z,5.28
2022-10-13T09:45:20.386Z,5.10
2022-10-13T09:55:34.988Z,5.60
2022-10-13T10:00:39.637Z,5.43
2022-10-13T10:05:50.065Z,5.95
2022-10-13T10:10:56.229Z,5.53
2022-10-13T10:21:11.955Z,5.68
2022-10-13T10:26:24.222Z,5.28
2022-10-13T10:31:42.280Z,5.65
2022-10-13T10:36:54.085Z,5.10
2022-10-13T10:42:04.620Z,5.13
2022-10-13T10:47:21.034Z,5.43
2022-10-13T10:52:38.072Z,5.07
2022-10-13T10:57:52.011Z,5.40
2022-10-13T11:03:03.983Z,5.32
2022-10-13T11:08:27.935Z,5.22
2022-10-13T11:13:51.654Z,5.05
2022-10-13T11:19:01.279Z,5.07
2022-10-13T11:24:04.927Z,4.57
2022-10-13T11:29:18.876Z,5.00
2022-10-13T11:34:30.846Z,4.85
2022-10-13T11:40:10.068Z,4.57
2022-10-13T11:45:27.031Z,4.55
2022-10-13T11:50:38.852Z,4.28
2022-10-13T11:55:51.812Z,4.20
2022-10-13T12:00:58.885Z,3.63
2022-10-13T12:06:05.544Z,4.10
2022-10-13T12:11:22.478Z,3.50
2022-10-13T12:16:28.430Z,4.25
2022-10-13T12:21:31.968Z,3.90
2022-10-13T12:26:35.660Z,3.33
2022-10-13T12:31:45.717Z,3.28
2022-10-13T12:36:58.860Z,2.40
2022-10-13T12:42:04.740Z,3.10
2022-10-13T12:47:47.657Z,3.17
2022-10-13T12:52:53.121Z,2.67
2022-10-13T12:57:57.050Z,2.63
2022-10-13T13:03:04.537Z,2.50
2022-10-13T13:08:25.190Z,2.22
2022-10-13T13:13:29.302Z,2.80
2022-10-13T13:18:38.378Z,2.58
2022-10-13T13:23:42.500Z,2.30
2022-10-13T13:28:48.034Z,2.20
2022-10-13T13:33:53.556Z,2.00
2022-10-13T13:38:57.199Z,2.00
2022-10-13T13:44:00.730Z,2.00
2022-10-13T13:49:05.906Z,2.00
2022-10-13T13:54:09.456Z,2.35
2022-10-13T13:59:12.970Z,2.20
2022-10-13T14:04:18.159Z,2.10
2022-10-13T14:09:21.692Z,2.08
2022-10-13T14:14:25.508Z,2.10
2022-10-13T14:19:32.386Z,1.83
2022-10-13T14:24:35.927Z,1.92
2022-10-13T14:29:39.512Z,2.15
2022-10-13T14:34:44.720Z,2.40
2022-10-13T14:39:48.250Z,2.15
2022-10-13T14:44:51.770Z,2.10
2022-10-13T14:49:56.918Z,2.17
2022-10-13T14:55:00.470Z,2.20
2022-10-13T15:00:04.260Z,2.45
2022-10-13T15:05:10.387Z,2.17
2022-10-13T15:10:13.910Z,2.45
2022-10-13T15:15:17.536Z,2.60
2022-10-13T15:20:22.702Z,2.97
2022-10-13T15:25:26.251Z,2.10
2022-10-13T15:30:29.821Z,2.40
2022-10-13T15:35:34.978Z,2.28
2022-10-13T15:40:41.215Z,2.20
2022-10-13T15:50:49.392Z,1.90
2022-10-13T15:55:52.967Z,2.00
2022-10-13T16:00:56.645Z,2.13
2022-10-13T16:06:04.531Z,1.80
2022-10-13T16:11:11.984Z,2.00
2022-10-13T16:16:15.600Z,1.63
2022-10-13T16:21:22.486Z,2.03
2022-10-13T16:26:26.027Z,1.70
2022-10-13T16:31:29.578Z,1.60
2022-10-13T16:36:34.759Z,1.92
2022-10-13T16:41:38.312Z,2.00
2022-10-13T16:46:41.839Z,2.00
2022-10-13T16:51:47.033Z,1.63
2022-10-13T16:56:50.571Z,1.90
2022-10-13T17:01:54.087Z,2.00
2022-10-13T17:06:59.267Z,1.90
2022-10-13T17:12:02.831Z,2.10
2022-10-13T17:17:06.371Z,1.85
2022-10-13T17:22:12.413Z,2.20
2022-10-13T17:27:16.374Z,1.80
2022-10-13T17:32:19.934Z,1.88
2022-10-13T17:37:25.141Z,1.90
2022-10-13T17:42:30.270Z,1.75
2022-10-13T17:47:33.817Z,1.85
2022-10-13T17:52:39.527Z,1.60
2022-10-13T17:57:43.136Z,1.88
2022-10-13T18:02:46.697Z,1.60
2022-10-13T18:07:51.898Z,1.80
2022-10-13T18:12:55.410Z,1.60
2022-10-13T18:17:58.946Z,1.92
2022-10-13T18:23:04.171Z,1.70
2022-10-13T18:28:07.695Z,1.70
2022-10-13T18:33:11.247Z,1.63
2022-10-13T18:38:16.452Z,1.70
2022-10-13T18:43:20.449Z,2.03
2022-10-13T18:48:23.977Z,2.17
2022-10-13T18:53:29.134Z,1.90
2022-10-13T18:58:33.008Z,1.90
2022-10-13T19:03:38.298Z,1.88
2022-10-13T19:08:43.653Z,1.95
2022-10-13T19:18:51.101Z,2.08
2022-10-13T19:23:59.884Z,2.25
2022-10-13T19:29:05.694Z,2.60
2022-10-13T19:34:09.940Z,2.47
2022-10-13T19:39:17.722Z,2.88
2022-10-13T19:44:22.096Z,2.95
2022-10-13T19:49:25.764Z,2.30
2022-10-13T19:54:33.985Z,2.40
2022-10-13T19:59:38.342Z,2.40
2022-10-13T20:04:41.962Z,2.97
2022-10-13T20:09:47.332Z,2.90
2022-10-13T20:19:53.695Z,2.58
2022-10-13T20:24:58.923Z,2.70
2022-10-13T20:35:06.154Z,2.60
2022-10-13T20:40:12.174Z,2.40
2022-10-13T20:45:15.831Z,2.45
2022-10-13T20:50:19.381Z,2.20
2022-10-13T20:55:24.575Z,2.30
2022-10-13T21:00:28.244Z,2.50
2022-10-13T21:05:33.561Z,2.60
2022-10-13T21:15:44.455Z,2.40
2022-10-13T21:20:47.967Z,2.40
2022-10-13T21:25:53.146Z,2.20
2022-10-13T21:36:08.054Z,2.20
2022-10-13T21:41:14.801Z,2.08
2022-10-13T21:46:20.046Z,2.13
2022-10-13T21:56:29.490Z,2.20
2022-10-13T22:01:34.026Z,1.92
2022-10-13T22:06:37.544Z,2.00
2022-10-13T22:11:42.885Z,2.15
2022-10-13T22:16:48.370Z,2.22
2022-10-13T22:21:52.087Z,2.20
2022-10-13T22:26:57.509Z,2.28
2022-10-13T22:32:01.034Z,2.13
2022-10-13T22:37:04.609Z,1.95
2022-10-13T22:42:09.821Z,2.00
2022-10-13T22:52:16.099Z,2.25
2022-10-13T22:57:21.553Z,2.20
2022-10-13T23:02:25.981Z,1.95
2022-10-13T23:07:30.384Z,2.30
2022-10-13T23:12:35.550Z,2.27
2022-10-13T23:22:42.178Z,2.38
2022-10-13T23:27:47.337Z,2.10
2022-10-13T23:32:50.853Z,2.20
2022-10-13T23:37:54.447Z,2.13
2022-10-13T23:42:59.616Z,2.22
2022-10-13T23:53:05.970Z,2.30
2022-10-13T23:58:11.550Z,2.40
